Tucson, AZ

9:14 AM MST on June 03, 2015 (GMT -0700)
Agua Caliente Park Area | | Change Station
CLOSE
Current Station
Personal Weather Station
Location: Tucson, AZ
Elevation: 2760 ft
Nearby Weather Stations

Elev 2760 ft 32.29 °N, 110.73 °W | Updated 2 minutes ago

Clear
Clear
89.2 °F
Feels Like 88 °F
N
4.0
Wind Variable Wind from WSW
Gusts 7.0 mph

Today
High -- | Low -- °F
--% Chance of Precip.
Yesterday
High -- | Low -- °F
Precip. -- in
5:16 AM 7:25 PM
Full, 99% visible
Pressure 29.80 in
Visibility 10.0 miles
Clouds Clear
Heat Index 88 °F
Dew Point 34 °F
Humidity 35%
Rainfall 0.00 in
Snow Depth Not available.
UV 6 out of 12
Pollen 4.90 out of 12
Air Quality Not available.
Flu Activity Local Activity
METAR KDMA 031558Z AUTO 15006KT 10SM CLR 30/M02 A2994 RMK AO2 SLP089 T02981020 $

More Conditions Fewer Conditions

Pressure 29.80 in
Visibility 10.0 miles
Clouds Clear
Heat Index 88 °F
Dew Point 34 °F
Humidity 35%
Rainfall 0.00 in
Snow Depth Not available.
UV 6 out of 12
Pollen 4.90 out of 12
Air Quality Not available.
Flu Activity Local Activity
METAR KDMA 031558Z AUTO 15006KT 10SM CLR 30/M02 A2994 RMK AO2 SLP089 T02981020 $

More Conditions Fewer Conditions

10-Day Weather Forecast

×

Almanac

Astronomy

Jun. 03, 2015 Rise Set
Actual Time
Civil Twilight
Nautical Twilight
Astronomical Twilight
Moon
Length of Visible Light
Length of Day
Tomorrow will be .
, % of the Moon is Illuminated

Today's Extremes

State Highs State Lows

Community

WunderPhotos

Upload Photos

1,826,246 photos uploaded!

WunderBlogs® & News

Nearby

Air Quality

  Air Quality AQ Index Pollutant
Not available.

Snow Depth

Station Depth Elevation

Earthquake Activity

City Distance Mag. Time & Date
Minimum magnitude displayed is 2.5.

Coastal Water Temperatures

Place Temperature

Stations

Nearby Weather Stations

Station Location Temp. Windchill Dew Point Humidity Wind Precip. Elev Updated Type